createdAt,value
2022-11-02T00:01:39.475Z,13.33
2022-11-02T00:04:06.145Z,13.26
2022-11-02T00:06:33.451Z,13.27
2022-11-02T00:09:00.010Z,13.24
2022-11-02T00:11:27.032Z,13.19
2022-11-02T00:13:53.663Z,13.27
2022-11-02T00:16:22.572Z,13.34
2022-11-02T00:18:53.447Z,13.36
2022-11-02T00:21:21.625Z,13.36
2022-11-02T00:23:49.196Z,13.31
2022-11-02T00:26:16.056Z,13.31
2022-11-02T00:28:43.251Z,13.35
2022-11-02T00:31:09.880Z,13.35
2022-11-02T00:33:36.515Z,13.34
2022-11-02T00:36:03.209Z,13.31
2022-11-02T00:38:32.035Z,13.34
2022-11-02T00:40:59.134Z,13.29
2022-11-02T00:43:25.883Z,13.30
2022-11-02T00:45:52.578Z,13.24
2022-11-02T00:48:19.181Z,13.28
2022-11-02T00:50:46.854Z,13.32
2022-11-02T00:53:13.583Z,13.34
2022-11-02T00:55:48.738Z,13.32
2022-11-02T00:58:15.567Z,13.35
2022-11-02T01:00:42.265Z,13.34
2022-11-02T01:03:09.459Z,13.36
2022-11-02T01:05:37.563Z,13.37
2022-11-02T01:08:05.057Z,13.33
2022-11-02T01:10:31.872Z,13.34
2022-11-02T01:13:01.052Z,13.28
2022-11-02T01:15:28.258Z,13.26
2022-11-02T01:17:54.889Z,13.31
2022-11-02T01:20:21.759Z,13.31
2022-11-02T01:22:48.354Z,13.32
2022-11-02T01:25:15.117Z,13.32
2022-11-02T01:27:41.641Z,13.34
2022-11-02T01:30:08.660Z,13.27
2022-11-02T01:32:36.254Z,13.30
2022-11-02T01:35:03.008Z,13.33
2022-11-02T01:37:29.719Z,13.34
2022-11-02T01:39:56.350Z,13.34
2022-11-02T01:42:25.410Z,13.34
2022-11-02T01:44:52.243Z,13.35
2022-11-02T01:47:21.740Z,13.32
2022-11-02T01:49:52.790Z,13.31
2022-11-02T01:52:39.715Z,13.33
2022-11-02T01:55:10.553Z,13.29
2022-11-02T01:57:41.632Z,13.31
2022-11-02T02:00:14.749Z,13.31
2022-11-02T02:03:07.038Z,13.19
2022-11-02T02:05:47.444Z,13.17
2022-11-02T02:08:20.274Z,13.20
2022-11-02T02:10:46.846Z,13.23
2022-11-02T02:13:14.577Z,13.22
2022-11-02T02:15:57.434Z,13.18
2022-11-02T02:18:29.301Z,13.21
2022-11-02T02:21:25.583Z,13.24
2022-11-02T02:24:34.078Z,13.15
2022-11-02T02:27:21.710Z,13.17
2022-11-02T02:30:02.306Z,13.17
2022-11-02T02:32:51.064Z,13.17
2022-11-02T02:35:28.796Z,13.17
2022-11-02T02:38:03.380Z,13.14
2022-11-02T02:40:35.376Z,13.09
2022-11-02T02:43:08.317Z,13.07
2022-11-02T02:45:39.590Z,13.01
2022-11-02T02:48:17.207Z,12.98
2022-11-02T02:51:06.409Z,12.94
2022-11-02T02:54:00.043Z,12.91
2022-11-02T02:56:31.813Z,12.89
2022-11-02T02:59:00.439Z,12.92
2022-11-02T03:01:28.382Z,12.89
2022-11-02T03:03:54.988Z,12.83
2022-11-02T03:06:33.992Z,12.87
2022-11-02T03:09:23.043Z,12.87
2022-11-02T03:11:56.530Z,12.83
2022-11-02T03:14:42.608Z,12.80
2022-11-02T03:17:20.416Z,12.83
2022-11-02T03:20:34.017Z,12.80
2022-11-02T03:23:14.396Z,12.77
2022-11-02T03:25:50.457Z,12.81
2022-11-02T03:28:33.609Z,12.80
2022-11-02T03:31:12.849Z,12.77
2022-11-02T03:33:52.212Z,12.77
2022-11-02T03:36:24.966Z,12.83
2022-11-02T03:39:00.571Z,12.86
2022-11-02T03:41:31.727Z,12.87
2022-11-02T03:44:11.921Z,12.99
2022-11-02T03:46:41.962Z,12.97
2022-11-02T03:49:14.918Z,12.98
2022-11-02T03:51:45.937Z,12.96
2022-11-02T03:54:49.879Z,13.07
2022-11-02T03:57:36.002Z,13.10
2022-11-02T04:00:32.374Z,13.10
2022-11-02T04:03:07.909Z,13.19
2022-11-02T04:05:39.668Z,13.31
2022-11-02T04:08:22.057Z,13.36
2022-11-02T04:11:13.858Z,13.37
2022-11-02T04:14:01.768Z,13.32
2022-11-02T04:16:31.430Z,13.31
2022-11-02T04:19:18.497Z,13.34
2022-11-02T04:22:05.353Z,13.42
2022-11-02T04:24:52.805Z,13.45
2022-11-02T04:27:21.099Z,13.47
2022-11-02T04:29:48.452Z,13.54
2022-11-02T04:32:15.489Z,13.62
2022-11-02T04:34:42.139Z,13.68
2022-11-02T04:37:28.640Z,13.70
2022-11-02T04:39:55.172Z,13.73
2022-11-02T04:42:22.384Z,13.75
2022-11-02T04:44:57.023Z,13.77
2022-11-02T04:47:23.959Z,13.71
2022-11-02T04:49:51.101Z,13.69
2022-11-02T04:52:18.840Z,13.73
2022-11-02T04:54:49.227Z,13.77
2022-11-02T04:57:15.927Z,13.82
2022-11-02T04:59:43.409Z,13.77
2022-11-02T05:02:10.139Z,13.78
2022-11-02T05:04:37.527Z,13.84
2022-11-02T05:07:06.466Z,13.85
2022-11-02T05:09:35.082Z,13.93
2022-11-02T05:12:05.010Z,13.95
2022-11-02T05:14:32.844Z,13.89
2022-11-02T05:17:01.015Z,13.85
2022-11-02T05:19:28.220Z,13.80
2022-11-02T05:21:54.740Z,13.78
2022-11-02T05:24:23.082Z,13.74
2022-11-02T05:26:53.777Z,13.79
2022-11-02T05:29:22.911Z,13.85
2022-11-02T05:31:49.975Z,13.83
2022-11-02T05:34:16.691Z,13.73
2022-11-02T05:36:43.523Z,13.58
2022-11-02T05:39:10.183Z,13.47
2022-11-02T05:41:36.766Z,13.38
2022-11-02T05:44:04.245Z,13.32
2022-11-02T05:46:31.402Z,13.21
2022-11-02T05:48:58.000Z,13.20
2022-11-02T05:51:24.788Z,13.17
2022-11-02T05:53:51.351Z,13.15
2022-11-02T05:56:23.655Z,13.16
2022-11-02T06:01:18.943Z,13.06
2022-11-02T06:03:50.488Z,13.07
2022-11-02T06:06:19.721Z,13.10
2022-11-02T06:08:46.274Z,13.12
2022-11-02T06:11:13.950Z,13.15
2022-11-02T06:13:41.399Z,13.14
2022-11-02T06:16:09.893Z,13.14
2022-11-02T06:18:38.267Z,13.17
2022-11-02T06:21:05.157Z,13.18
2022-11-02T06:23:31.783Z,13.24
2022-11-02T06:26:00.603Z,13.33
2022-11-02T06:28:28.187Z,13.44
2022-11-02T06:30:55.924Z,13.53
2022-11-02T06:33:23.424Z,13.57
2022-11-02T06:35:54.518Z,13.58
2022-11-02T06:38:22.106Z,13.61
2022-11-02T06:40:59.890Z,13.66
2022-11-02T06:43:26.548Z,13.67
2022-11-02T06:45:57.579Z,13.59
2022-11-02T06:48:28.717Z,13.57
2022-11-02T06:50:59.917Z,13.53
2022-11-02T06:53:26.618Z,13.51
2022-11-02T06:55:54.904Z,13.50
2022-11-02T06:58:23.061Z,13.49
2022-11-02T07:00:49.806Z,13.47
2022-11-02T07:03:16.817Z,13.45
2022-11-02T07:05:50.697Z,13.37
2022-11-02T07:08:17.266Z,13.28
2022-11-02T07:10:44.214Z,13.25
2022-11-02T07:13:11.009Z,13.16
2022-11-02T07:15:37.823Z,13.14
2022-11-02T07:18:06.185Z,13.19
2022-11-02T07:20:33.534Z,13.25
2022-11-02T07:23:01.951Z,13.30
2022-11-02T07:25:32.766Z,13.32
2022-11-02T07:28:01.460Z,13.35
2022-11-02T07:30:34.543Z,13.43
2022-11-02T07:33:01.874Z,13.45
2022-11-02T07:35:28.820Z,13.46
2022-11-02T07:38:00.110Z,13.48
2022-11-02T07:40:28.432Z,13.53
2022-11-02T07:42:56.272Z,13.54
2022-11-02T07:45:32.726Z,13.57
2022-11-02T07:47:59.325Z,13.59
2022-11-02T07:50:29.109Z,13.65
2022-11-02T07:52:57.714Z,13.71
2022-11-02T07:55:30.097Z,13.77
2022-11-02T07:58:01.200Z,13.85
2022-11-02T08:00:31.249Z,13.90
2022-11-02T08:02:59.317Z,13.95
2022-11-02T08:05:27.441Z,13.98
2022-11-02T08:08:05.726Z,14.03
2022-11-02T08:10:37.427Z,14.07
2022-11-02T08:13:11.375Z,14.13
2022-11-02T08:15:38.300Z,14.21
2022-11-02T08:18:12.365Z,14.28
2022-11-02T08:20:39.293Z,14.33
2022-11-02T08:23:07.727Z,14.36
2022-11-02T08:25:34.994Z,14.41
2022-11-02T08:28:02.296Z,14.41
2022-11-02T08:30:31.688Z,14.45
2022-11-02T08:33:03.925Z,14.52
2022-11-02T08:35:30.650Z,14.57
2022-11-02T08:37:58.116Z,14.62
2022-11-02T08:40:24.851Z,14.69
2022-11-02T08:42:59.528Z,14.76
2022-11-02T08:45:26.946Z,14.80
2022-11-02T08:47:53.741Z,14.87
2022-11-02T08:50:21.861Z,14.92
2022-11-02T08:52:48.558Z,14.95
2022-11-02T08:55:15.462Z,14.99
2022-11-02T08:57:52.870Z,15.05
2022-11-02T09:00:22.663Z,15.07
2022-11-02T09:03:02.850Z,15.06
2022-11-02T09:05:31.849Z,15.07
2022-11-02T09:08:05.153Z,15.20
2022-11-02T09:10:35.088Z,15.31
2022-11-02T09:13:02.708Z,15.34
2022-11-02T09:15:30.094Z,15.34
2022-11-02T09:17:56.754Z,15.44
2022-11-02T09:20:26.054Z,15.51
2022-11-02T09:22:52.583Z,15.59
2022-11-02T09:25:21.559Z,15.66
2022-11-02T09:27:55.425Z,15.70
2022-11-02T09:30:23.656Z,15.73
2022-11-02T09:32:58.213Z,15.85
2022-11-02T09:35:26.437Z,15.89
2022-11-02T09:37:53.039Z,15.90
2022-11-02T09:40:25.588Z,15.89
2022-11-02T09:42:58.039Z,15.93
2022-11-02T09:45:25.171Z,15.95
2022-11-02T09:48:16.136Z,16.02
2022-11-02T09:50:59.288Z,16.07
2022-11-02T09:53:41.930Z,16.15
2022-11-02T09:56:11.030Z,16.23
2022-11-02T09:58:40.612Z,16.31
2022-11-02T10:01:32.530Z,16.42
2022-11-02T10:04:20.862Z,16.46
2022-11-02T10:06:56.805Z,16.68
2022-11-02T10:09:36.244Z,16.78
2022-11-02T10:12:12.446Z,16.86
2022-11-02T10:14:48.105Z,16.87
2022-11-02T10:17:19.572Z,16.86
2022-11-02T10:19:52.104Z,16.94
2022-11-02T10:22:20.316Z,16.96
2022-11-02T10:24:48.287Z,16.94
2022-11-02T10:27:33.048Z,17.05
2022-11-02T10:30:16.174Z,18.78
2022-11-02T10:32:44.971Z,19.16
2022-11-02T10:36:19.284Z,18.30
2022-11-02T10:39:05.675Z,17.70
2022-11-02T10:41:50.672Z,17.51
2022-11-02T10:44:31.847Z,17.70
2022-11-02T10:47:04.354Z,18.14
2022-11-02T10:49:49.079Z,21.25
2022-11-02T10:52:17.962Z,25.34
2022-11-02T10:54:44.573Z,28.40
2022-11-02T10:57:13.482Z,30.63
2022-11-02T10:59:40.642Z,32.15
2022-11-02T11:02:14.768Z,32.45
2022-11-02T11:04:42.538Z,32.30
2022-11-02T11:07:26.410Z,33.62
2022-11-02T11:09:55.609Z,34.74
2022-11-02T11:12:44.511Z,35.45
2022-11-02T11:21:01.340Z,36.57
2022-11-02T11:23:28.036Z,36.29
2022-11-02T11:25:59.393Z,36.40
2022-11-02T11:28:25.898Z,37.05
2022-11-02T11:31:12.260Z,37.60
2022-11-02T11:34:00.024Z,37.97
2022-11-02T11:36:33.495Z,37.88
2022-11-02T11:39:02.490Z,37.99
2022-11-02T11:41:33.035Z,38.12
2022-11-02T11:44:01.333Z,38.48
2022-11-02T11:46:48.010Z,38.78
2022-11-02T11:49:55.056Z,38.84
2022-11-02T11:52:31.995Z,38.91
2022-11-02T11:55:20.666Z,38.91
2022-11-02T11:58:04.349Z,38.75
2022-11-02T12:00:31.334Z,38.34
2022-11-02T12:03:06.063Z,37.97
2022-11-02T12:05:52.135Z,37.48
2022-11-02T12:08:41.053Z,37.12
2022-11-02T12:11:32.587Z,36.76
2022-11-02T12:14:34.764Z,36.42
2022-11-02T12:17:25.833Z,36.31
2022-11-02T12:20:17.535Z,35.82
2022-11-02T12:22:58.277Z,35.69
2022-11-02T12:25:42.459Z,35.41
2022-11-02T12:28:19.313Z,34.79
2022-11-02T12:31:20.318Z,34.03
2022-11-02T12:34:07.292Z,33.16
2022-11-02T12:37:40.053Z,31.61
2022-11-02T12:40:29.694Z,28.31
2022-11-02T12:43:18.062Z,25.52
2022-11-02T12:45:56.145Z,24.11
2022-11-02T12:49:05.819Z,22.84
2022-11-02T12:51:48.308Z,22.26
2022-11-02T12:54:22.989Z,21.92
2022-11-02T12:56:54.119Z,21.67
2022-11-02T12:59:34.478Z,21.57
2022-11-02T13:02:18.169Z,21.44
2022-11-02T13:04:44.719Z,21.24
2022-11-02T13:07:14.874Z,21.13
2022-11-02T13:09:56.114Z,20.87
2022-11-02T13:12:24.393Z,20.65
2022-11-02T13:14:55.169Z,20.54
2022-11-02T13:17:27.304Z,20.42
2022-11-02T13:19:57.983Z,20.31
2022-11-02T13:22:35.464Z,20.33
2022-11-02T13:25:25.976Z,20.40
2022-11-02T13:28:02.643Z,20.36
2022-11-02T13:30:33.553Z,20.35
2022-11-02T13:33:08.631Z,20.30
2022-11-02T13:35:38.001Z,20.15
2022-11-02T13:38:06.915Z,20.11
2022-11-02T13:40:42.284Z,20.06
2022-11-02T13:43:17.770Z,19.97
2022-11-02T13:45:47.189Z,19.87
2022-11-02T13:48:40.404Z,19.80
2022-11-02T13:51:35.005Z,19.72
2022-11-02T13:54:26.245Z,19.64
2022-11-02T13:56:56.854Z,19.51
2022-11-02T13:59:31.996Z,19.52
2022-11-02T14:02:02.105Z,19.47
2022-11-02T14:04:36.818Z,19.37
2022-11-02T14:07:07.871Z,19.31
2022-11-02T14:09:42.209Z,19.18
2022-11-02T14:12:21.111Z,19.22
2022-11-02T14:15:13.959Z,19.32
2022-11-02T14:17:52.792Z,19.36
2022-11-02T14:20:36.022Z,19.28
2022-11-02T14:23:12.044Z,19.22
2022-11-02T14:25:53.115Z,19.17
2022-11-02T14:28:22.357Z,19.08
2022-11-02T14:31:18.892Z,19.04
2022-11-02T14:34:12.394Z,18.95
2022-11-02T14:36:54.330Z,18.88
2022-11-02T14:39:27.029Z,18.79
2022-11-02T14:42:10.622Z,18.76
2022-11-02T14:45:21.958Z,18.65
2022-11-02T14:47:48.670Z,18.47
2022-11-02T14:50:21.112Z,18.46
2022-11-02T14:53:21.550Z,18.46
2022-11-02T14:55:54.284Z,18.34
2022-11-02T14:58:23.961Z,18.25
2022-11-02T15:00:50.844Z,18.16
2022-11-02T15:03:26.461Z,18.16
2022-11-02T15:06:13.619Z,18.11
2022-11-02T15:08:43.122Z,18.05
2022-11-02T15:11:47.160Z,18.05
2022-11-02T15:14:35.655Z,17.95
2022-11-02T15:17:26.616Z,17.89
2022-11-02T15:20:15.881Z,17.87
2022-11-02T15:22:52.890Z,17.81
2022-11-02T15:25:26.445Z,17.76
2022-11-02T15:27:57.391Z,17.67
2022-11-02T15:30:28.372Z,17.67
2022-11-02T15:33:05.666Z,17.63
2022-11-02T15:35:37.979Z,17.56
2022-11-02T15:38:28.069Z,17.50
2022-11-02T15:41:30.307Z,17.42
2022-11-02T15:44:19.952Z,17.32
2022-11-02T15:46:51.140Z,17.24
2022-11-02T15:49:42.505Z,17.14
2022-11-02T15:52:20.053Z,17.04
2022-11-02T15:55:02.001Z,17.00
2022-11-02T15:58:21.287Z,16.99
2022-11-02T16:01:11.794Z,16.91
2022-11-02T16:03:38.653Z,16.84
2022-11-02T16:06:06.165Z,16.77
2022-11-02T16:08:36.006Z,16.72
2022-11-02T16:11:10.499Z,16.66
2022-11-02T16:13:55.545Z,16.57
2022-11-02T16:16:22.581Z,16.56
2022-11-02T16:18:52.440Z,16.57
2022-11-02T16:21:20.527Z,16.50
2022-11-02T16:23:50.066Z,16.41
2022-11-02T16:26:22.360Z,16.42
2022-11-02T16:28:52.321Z,16.42
2022-11-02T16:31:31.518Z,16.38
2022-11-02T16:34:00.705Z,16.31
2022-11-02T16:36:40.331Z,16.27
2022-11-02T16:39:13.249Z,16.23
2022-11-02T16:41:41.090Z,16.20
2022-11-02T16:44:16.782Z,16.20
2022-11-02T16:46:55.497Z,16.19
2022-11-02T16:49:24.376Z,16.17
2022-11-02T16:51:57.703Z,16.16
2022-11-02T16:54:33.561Z,16.11
2022-11-02T16:57:10.281Z,16.07
2022-11-02T17:00:09.474Z,16.03
2022-11-02T17:02:41.981Z,15.98
2022-11-02T17:05:24.636Z,15.97
2022-11-02T17:08:05.058Z,15.95
2022-11-02T17:10:34.121Z,15.93
2022-11-02T17:13:02.789Z,15.91
2022-11-02T17:15:34.161Z,15.89
2022-11-02T17:18:09.851Z,15.82
2022-11-02T17:20:38.543Z,15.75
2022-11-02T17:23:10.660Z,15.73
2022-11-02T17:25:39.958Z,15.70
2022-11-02T17:28:35.052Z,15.66
2022-11-02T17:31:01.979Z,15.60
2022-11-02T17:33:30.649Z,15.61
2022-11-02T17:36:05.614Z,15.64
2022-11-02T17:38:32.752Z,15.59
2022-11-02T17:41:00.560Z,15.58
2022-11-02T17:43:27.545Z,15.59
2022-11-02T17:46:03.235Z,15.58
2022-11-02T17:48:30.109Z,15.51
2022-11-02T17:50:59.545Z,15.51
2022-11-02T17:53:26.235Z,15.53
2022-11-02T17:55:53.812Z,15.51
2022-11-02T17:58:20.496Z,15.48
2022-11-02T18:00:47.133Z,15.42
2022-11-02T18:03:17.203Z,15.34
2022-11-02T18:05:48.328Z,15.26
2022-11-02T18:08:17.233Z,15.20
2022-11-02T18:10:45.890Z,15.15
2022-11-02T18:13:17.533Z,15.07
2022-11-02T18:15:44.188Z,14.98
2022-11-02T18:18:11.494Z,15.01
2022-11-02T18:20:41.838Z,15.04
2022-11-02T18:23:15.537Z,15.05
2022-11-02T18:25:42.558Z,14.96
2022-11-02T18:28:09.258Z,14.84
2022-11-02T18:30:35.974Z,14.80
2022-11-02T18:33:03.530Z,14.71
2022-11-02T18:35:30.219Z,14.65
2022-11-02T18:37:56.851Z,14.55
2022-11-02T18:40:23.674Z,14.44
2022-11-02T18:42:52.531Z,14.44
2022-11-02T18:45:19.348Z,14.44
2022-11-02T18:47:46.224Z,14.51
2022-11-02T18:50:13.947Z,14.59
2022-11-02T18:52:41.999Z,14.62
2022-11-02T18:55:08.702Z,14.62
2022-11-02T18:57:35.359Z,14.65
2022-11-02T19:00:02.992Z,14.60
2022-11-02T19:02:30.316Z,14.57
2022-11-02T19:04:57.216Z,14.58
2022-11-02T19:07:42.932Z,14.55
2022-11-02T19:10:10.121Z,14.51
2022-11-02T19:12:37.388Z,14.54
2022-11-02T19:15:04.555Z,14.57
2022-11-02T19:17:31.211Z,14.62
2022-11-02T19:19:57.953Z,14.57
2022-11-02T19:22:26.387Z,14.55
2022-11-02T19:24:53.409Z,14.56
2022-11-02T19:27:25.418Z,14.57
2022-11-02T19:29:52.623Z,14.55
2022-11-02T19:32:19.926Z,14.49
2022-11-02T19:34:46.641Z,14.48
2022-11-02T19:37:13.543Z,14.46
2022-11-02T19:39:43.222Z,14.43
2022-11-02T19:42:12.296Z,14.53
2022-11-02T19:44:42.796Z,14.53
2022-11-02T19:47:10.110Z,14.50
2022-11-02T19:49:36.687Z,14.45
2022-11-02T19:52:04.125Z,14.32
2022-11-02T19:54:32.278Z,14.29
2022-11-02T19:56:59.291Z,14.27
2022-11-02T19:59:25.974Z,14.23
2022-11-02T20:01:52.837Z,14.24
2022-11-02T20:04:19.668Z,14.27
2022-11-02T20:06:46.457Z,14.35
2022-11-02T20:09:18.518Z,14.39
2022-11-02T20:11:46.860Z,14.33
2022-11-02T20:14:15.683Z,14.16
2022-11-02T20:16:42.707Z,14.12
2022-11-02T20:19:10.123Z,14.11
2022-11-02T20:21:42.743Z,14.02
2022-11-02T20:24:11.289Z,13.94
2022-11-02T20:26:41.401Z,13.90
2022-11-02T20:29:11.000Z,13.90
2022-11-02T20:31:41.738Z,13.90
2022-11-02T20:34:09.167Z,13.87
2022-11-02T20:36:36.309Z,13.85
2022-11-02T20:39:04.864Z,13.91
2022-11-02T20:41:32.020Z,13.97
2022-11-02T20:43:59.642Z,14.01
2022-11-02T20:46:37.420Z,14.04
2022-11-02T20:49:20.600Z,14.06
2022-11-02T20:51:50.821Z,14.08
2022-11-02T20:54:19.509Z,14.10
2022-11-02T20:56:46.541Z,14.08
2022-11-02T20:59:13.314Z,14.08
2022-11-02T21:01:40.141Z,14.07
2022-11-02T21:04:07.187Z,14.07
2022-11-02T21:06:33.791Z,13.99
2022-11-02T21:09:00.878Z,13.92
2022-11-02T21:11:46.088Z,13.76
2022-11-02T21:14:12.867Z,13.62
2022-11-02T21:16:39.573Z,13.58
2022-11-02T21:19:06.657Z,13.54
2022-11-02T21:21:33.784Z,13.51
2022-11-02T21:24:00.717Z,13.49
2022-11-02T21:26:29.190Z,13.57
2022-11-02T21:28:55.967Z,13.66
2022-11-02T21:31:22.779Z,13.69
2022-11-02T21:33:49.809Z,13.65
2022-11-02T21:36:17.621Z,13.60
2022-11-02T21:38:45.097Z,13.65
2022-11-02T21:41:18.185Z,13.72
2022-11-02T21:43:44.850Z,13.73
2022-11-02T21:46:11.485Z,13.75
2022-11-02T21:48:38.627Z,13.75
2022-11-02T21:51:09.825Z,13.75
2022-11-02T21:53:39.231Z,13.75
2022-11-02T21:56:07.101Z,13.73
2022-11-02T21:58:34.257Z,13.72
2022-11-02T22:01:24.564Z,13.67
2022-11-02T22:03:52.330Z,13.59
2022-11-02T22:06:21.184Z,13.55
2022-11-02T22:08:48.766Z,13.54
2022-11-02T22:11:24.514Z,13.54
2022-11-02T22:13:52.534Z,13.53
2022-11-02T22:16:24.964Z,13.55
2022-11-02T22:18:57.197Z,13.58
2022-11-02T22:21:25.588Z,13.54
2022-11-02T22:23:52.743Z,13.49
2022-11-02T22:26:21.669Z,13.46
2022-11-02T22:28:49.211Z,13.46
2022-11-02T22:31:23.343Z,13.46
2022-11-02T22:33:52.548Z,13.45
2022-11-02T22:36:22.170Z,13.44
2022-11-02T22:38:51.530Z,13.41
2022-11-02T22:41:35.341Z,13.39
2022-11-02T22:44:03.443Z,13.36
2022-11-02T22:46:31.601Z,13.31
2022-11-02T22:48:59.662Z,13.27
2022-11-02T22:51:28.559Z,13.30
2022-11-02T22:53:55.622Z,13.33
2022-11-02T22:56:23.896Z,13.35
2022-11-02T22:58:50.545Z,13.34
2022-11-02T23:01:22.173Z,13.32
2022-11-02T23:03:49.494Z,13.28
2022-11-02T23:06:18.401Z,13.28
2022-11-02T23:08:46.054Z,13.29
2022-11-02T23:11:24.497Z,13.30
2022-11-02T23:13:54.002Z,13.30
2022-11-02T23:16:26.253Z,13.26
2022-11-02T23:19:25.369Z,13.25
2022-11-02T23:22:13.913Z,13.16
2022-11-02T23:25:09.300Z,13.13
2022-11-02T23:27:59.080Z,13.08
2022-11-02T23:30:46.457Z,12.99
2022-11-02T23:33:13.077Z,12.80
2022-11-02T23:35:58.317Z,12.72
2022-11-02T23:38:24.961Z,12.63
2022-11-02T23:40:55.113Z,12.56
2022-11-02T23:43:21.897Z,12.50
2022-11-02T23:45:48.482Z,12.47
2022-11-02T23:51:01.140Z,12.46
2022-11-02T23:53:46.126Z,12.47
2022-11-02T23:56:33.504Z,12.48
2022-11-02T23:59:18.012Z,12.47
